Time;durP1;ratioP1;P1;durP2;ratioP2;P2;SDS_P1;SDS_P2;PMS_P1;PMS_P2;Temp;Humidity;BMP_temperature;BMP_pressure;BME280_temperature;BME280_humidity;BME280_pressure;Samples;Min_cycle;Max_cycle;Signal;HPM_P1;HPM_P2
2023/09/05 00:02:02;;;;;;;;;;;;;;;17.26;85.75;101918.81;5023461;28;20005;-64
2023/09/05 00:04:28;;;;;;;;;;;;;;;17.25;85.69;101924.97;5023493;28;19917;-64
2023/09/05 00:06:53;;;;;;;;;;;;;;;17.19;85.49;101923.13;5024142;28;20147;-64
2023/09/05 00:09:18;;;;;;;;;;;;;;;17.12;85.66;101926.53;5023006;28;19913;-64
2023/09/05 00:11:47;;;;;;;;;;;;;;;17.04;85.55;101922.91;5021811;28;19913;-64
2023/09/05 00:14:12;;;;;;;;;;;;;;;17.00;85.61;101918.47;5022293;28;19917;-64
2023/09/05 00:16:38;;;;;;;;;;;;;;;16.97;85.99;101911.38;5024039;28;19980;-64
2023/09/05 00:19:03;;;;;;;;;;;;;;;16.94;86.05;101911.34;5024180;28;19917;-64
2023/09/05 00:21:28;;;;;;;;;;;;;;;16.93;86.40;101908.69;5023903;28;19909;-64
2023/09/05 00:24:14;;;;;;;;;;;;;;;16.91;86.15;101907.81;5003729;28;20082;-64
2023/09/05 00:26:39;;;;;;;;;;;;;;;16.90;86.45;101906.94;5018337;28;20056;-64
2023/09/05 00:29:05;;;;;;;;;;;;;;;16.90;86.06;101919.19;5016955;28;19914;-64
2023/09/05 00:31:30;;;;;;;;;;;;;;;16.86;86.14;101913.84;5023746;28;19976;-64
2023/09/05 00:33:55;;;;;;;;;;;;;;;16.83;86.50;101913.81;5023740;28;20272;-64
2023/09/05 00:36:20;;;;;;;;;;;;;;;16.81;86.11;101920.78;5022964;28;19910;-64
2023/09/05 00:38:47;;;;;;;;;;;;;;;16.80;86.14;101911.13;5023450;28;19913;-64
2023/09/05 00:41:13;;;;;;;;;;;;;;;16.79;85.97;101911.13;5021175;28;19957;-64
2023/09/05 00:43:38;;;;;;;;;;;;;;;16.72;86.67;101920.66;5021391;28;19953;-64
2023/09/05 00:46:06;;;;;;;;;;;;;;;16.55;86.30;101923.00;5023886;28;19980;-64
2023/09/05 00:48:32;;;;;;;;;;;;;;;16.45;86.93;101921.09;5006678;28;20106;-64
2023/09/05 00:50:57;;;;;;;;;;;;;;;16.40;87.52;101922.78;5022853;28;19944;-64
2023/09/05 00:53:26;;;;;;;;;;;;;;;16.40;87.02;101928.91;5023696;28;19925;-64
2023/09/05 00:55:51;;;;;;;;;;;;;;;16.41;87.07;101928.06;5023320;28;19911;-64
2023/09/05 00:58:17;;;;;;;;;;;;;;;16.38;87.12;101930.66;5022453;28;19913;-64
2023/09/05 01:00:42;;;;;;;;;;;;;;;16.40;87.22;101928.91;5023380;28;19948;-64
2023/09/05 01:03:08;;;;;;;;;;;;;;;16.39;87.22;101916.59;5023501;28;19925;-64
2023/09/05 01:05:35;;;;;;;;;;;;;;;16.38;87.13;101914.84;5023089;28;20059;-64
2023/09/05 01:08:06;;;;;;;;;;;;;;;16.35;86.89;101917.41;5015838;28;19981;-64
2023/09/05 01:10:37;;;;;;;;;;;;;;;16.29;87.11;101909.41;5022534;28;19921;-64
2023/09/05 01:13:02;;;;;;;;;;;;;;;16.26;87.43;101922.53;5010689;28;20151;-64
2023/09/05 01:15:28;;;;;;;;;;;;;;;16.26;87.29;101918.13;5022853;28;19924;-64
2023/09/05 01:17:54;;;;;;;;;;;;;;;16.28;87.45;101918.16;5021019;28;19913;-64
2023/09/05 01:20:20;;;;;;;;;;;;;;;16.28;87.45;101907.66;5016680;28;19976;-64
2023/09/05 01:22:58;;;;;;;;;;;;;;;16.28;87.37;101905.91;5023135;28;19953;-64
2023/09/05 01:25:24;;;;;;;;;;;;;;;16.28;87.12;101907.66;5023200;28;19977;-64
2023/09/05 01:27:49;;;;;;;;;;;;;;;16.28;87.21;101910.28;5016286;28;19920;-64
2023/09/05 01:30:14;;;;;;;;;;;;;;;16.27;87.06;101921.66;5016896;28;19914;-64
2023/09/05 01:32:39;;;;;;;;;;;;;;;16.21;87.25;101924.19;5019611;28;19959;-64
2023/09/05 01:35:05;;;;;;;;;;;;;;;16.17;87.37;101926.75;5022794;28;19956;-64
2023/09/05 01:37:30;;;;;;;;;;;;;;;16.16;87.48;101927.63;5022979;28;19933;-64
2023/09/05 01:39:55;;;;;;;;;;;;;;;16.13;87.40;101924.03;5023175;28;20071;-64
2023/09/05 01:42:20;;;;;;;;;;;;;;;16.09;87.37;101927.47;5020291;28;20015;-64
2023/09/05 01:44:46;;;;;;;;;;;;;;;16.07;87.63;101927.44;5021452;28;19953;-64
2023/09/05 01:47:11;;;;;;;;;;;;;;;16.06;87.54;101927.41;5025609;28;19949;-64
2023/09/05 01:49:36;;;;;;;;;;;;;;;16.03;87.42;101916.84;5009205;28;20059;-64
2023/09/05 01:52:01;;;;;;;;;;;;;;;16.01;87.72;101915.94;5026624;28;19949;-64
2023/09/05 01:54:27;;;;;;;;;;;;;;;16.00;87.75;101917.69;5027158;28;20127;-64
2023/09/05 01:56:53;;;;;;;;;;;;;;;15.98;87.40;101916.78;5025662;28;19914;-64
2023/09/05 01:59:21;;;;;;;;;;;;;;;15.99;87.81;101915.94;5026576;28;19916;-64
2023/09/05 02:01:46;;;;;;;;;;;;;;;16.00;87.87;101925.56;5023189;28;19929;-64
2023/09/05 02:04:12;;;;;;;;;;;;;;;15.98;87.41;101922.91;5008380;28;19910;-64
2023/09/05 02:06:37;;;;;;;;;;;;;;;15.98;87.83;101919.41;5026551;28;19960;-64
2023/09/05 02:09:02;;;;;;;;;;;;;;;15.96;87.43;101932.53;5026578;28;20063;-64
2023/09/05 02:11:27;;;;;;;;;;;;;;;15.95;87.37;101924.59;5026056;28;19999;-64
2023/09/05 02:13:53;;;;;;;;;;;;;;;15.92;87.52;101925.44;5024416;28;19933;-64
2023/09/05 02:16:23;;;;;;;;;;;;;;;15.93;88.08;101916.69;5026560;28;19917;-64
2023/09/05 02:18:49;;;;;;;;;;;;;;;15.94;88.00;101912.31;5026432;28;19909;-64
2023/09/05 02:21:14;;;;;;;;;;;;;;;15.89;87.58;101917.50;5026376;28;19968;-64
2023/09/05 02:23:40;;;;;;;;;;;;;;;15.85;88.08;101920.91;5026136;28;19956;-64
2023/09/05 02:26:05;;;;;;;;;;;;;;;15.81;88.10;101914.72;5018108;28;19914;-64
2023/09/05 02:28:30;;;;;;;;;;;;;;;15.74;87.99;101912.81;5018652;28;20139;-64
2023/09/05 02:30:55;;;;;;;;;;;;;;;15.69;88.15;101905.69;5026457;28;19944;-64
2023/09/05 02:33:21;;;;;;;;;;;;;;;15.64;88.22;101908.19;5025805;28;19918;-64
2023/09/05 02:35:46;;;;;;;;;;;;;;;15.60;88.46;101906.38;5025805;28;20044;-64
2023/09/05 02:38:13;;;;;;;;;;;;;;;15.57;88.19;101914.19;5025976;28;19909;-64
2023/09/05 02:40:42;;;;;;;;;;;;;;;15.51;88.35;101906.19;5025855;28;20001;-64
2023/09/05 02:43:07;;;;;;;;;;;;;;;15.45;88.59;101910.47;5024331;28;20108;-64
2023/09/05 02:45:32;;;;;;;;;;;;;;;15.41;89.05;101910.34;5025673;28;20207;-64
2023/09/05 02:47:57;;;;;;;;;;;;;;;15.40;89.08;101914.72;5025878;28;20845;-64
2023/09/05 02:50:23;;;;;;;;;;;;;;;15.38;89.08;101908.56;5025105;28;20148;-64
2023/09/05 02:52:48;;;;;;;;;;;;;;;15.35;88.68;101905.88;5025402;28;19920;-64
2023/09/05 02:55:13;;;;;;;;;;;;;;;15.32;89.46;101905.78;5025498;28;20036;-64
2023/09/05 02:57:38;;;;;;;;;;;;;;;15.30;89.35;101903.13;5025337;28;19913;-64
2023/09/05 03:00:06;;;;;;;;;;;;;;;15.29;89.49;101901.41;5025622;28;20174;-64
2023/09/05 03:02:31;;;;;;;;;;;;;;;15.30;89.08;101897.00;5025286;28;19976;-64
2023/09/05 03:04:56;;;;;;;;;;;;;;;15.30;89.61;101894.38;5024940;28;19969;-64
2023/09/05 03:07:21;;;;;;;;;;;;;;;15.30;89.59;101889.13;5024634;28;20104;-64
2023/09/05 03:09:49;;;;;;;;;;;;;;;15.31;89.64;101898.78;5025224;28;19976;-64
2023/09/05 03:12:15;;;;;;;;;;;;;;;15.27;89.09;101896.97;5025224;28;19917;-64
2023/09/05 03:14:40;;;;;;;;;;;;;;;15.25;89.32;101896.00;5023537;28;19930;-64
2023/09/05 03:17:07;;;;;;;;;;;;;;;15.22;89.23;101898.59;5024360;28;19917;-64
2023/09/05 03:19:32;;;;;;;;;;;;;;;15.18;89.64;101897.66;5025224;28;20163;-64
2023/09/05 03:21:57;;;;;;;;;;;;;;;15.19;89.89;101893.28;5024153;28;19913;-64
2023/09/05 03:24:24;;;;;;;;;;;;;;;15.18;89.92;101897.66;5025060;28;19910;-64
2023/09/05 03:26:50;;;;;;;;;;;;;;;15.16;89.80;101893.22;5023749;28;19972;-64
2023/09/05 03:29:15;;;;;;;;;;;;;;;15.12;89.41;101890.53;5024919;28;19917;-64
2023/09/05 03:31:40;;;;;;;;;;;;;;;15.08;89.92;101893.94;5025011;28;19936;-64
2023/09/05 03:34:05;;;;;;;;;;;;;;;15.03;90.07;101892.94;5024598;28;19925;-64
2023/09/05 03:36:32;;;;;;;;;;;;;;;14.99;90.21;101891.13;5024880;28;20151;-64
2023/09/05 03:38:57;;;;;;;;;;;;;;;14.97;90.37;101890.19;5024806;28;19920;-64
2023/09/05 03:41:22;;;;;;;;;;;;;;;14.94;90.40;101888.34;5023706;28;19910;-64
2023/09/05 03:43:47;;;;;;;;;;;;;;;14.97;90.53;101889.31;5024841;28;20169;-64
2023/09/05 03:46:13;;;;;;;;;;;;;;;14.94;90.37;101877.00;5024634;28;19913;-64
2023/09/05 03:48:38;;;;;;;;;;;;;;;14.91;90.46;101888.28;5024809;28;20055;-64
2023/09/05 03:51:03;;;;;;;;;;;;;;;14.93;90.64;101888.31;5024746;28;20067;-63
2023/09/05 03:53:28;;;;;;;;;;;;;;;14.93;90.63;101888.31;5024424;28;19952;-64
2023/09/05 03:55:53;;;;;;;;;;;;;;;14.92;90.78;101892.69;5024067;28;19909;-64
2023/09/05 03:58:19;;;;;;;;;;;;;;;14.90;90.68;101885.63;5023853;28;19936;-63
2023/09/05 04:00:44;;;;;;;;;;;;;;;14.87;90.86;101880.31;5024494;28;20128;-63
2023/09/05 04:03:10;;;;;;;;;;;;;;;14.83;90.72;101878.47;5024351;28;19913;-63
2023/09/05 04:05:36;;;;;;;;;;;;;;;14.81;90.79;101888.06;5023342;28;19909;-63
2023/09/05 04:08:01;;;;;;;;;;;;;;;14.77;91.13;101882.75;5024218;28;19936;-64
2023/09/05 04:10:27;;;;;;;;;;;;;;;14.75;90.91;101875.69;5023119;28;19981;-63
2023/09/05 04:12:52;;;;;;;;;;;;;;;14.71;91.23;101873.84;5024233;28;20128;-63
2023/09/05 04:15:21;;;;;;;;;;;;;;;14.68;90.86;101873.78;5024132;28;19915;-63
2023/09/05 04:17:47;;;;;;;;;;;;;;;14.69;90.96;101867.69;5024612;28;19910;-63
2023/09/05 04:20:13;;;;;;;;;;;;;;;14.68;91.29;101865.91;5024125;28;20037;-63
2023/09/05 04:22:38;;;;;;;;;;;;;;;14.65;91.16;101863.22;5024282;28;19973;-63
2023/09/05 04:25:03;;;;;;;;;;;;;;;14.64;91.26;101864.94;5021870;28;19917;-63
2023/09/05 04:27:28;;;;;;;;;;;;;;;14.62;91.42;101853.53;5023060;28;19946;-63
2023/09/05 04:29:54;;;;;;;;;;;;;;;14.59;91.04;101858.69;5023431;28;20149;-63
2023/09/05 04:32:26;;;;;;;;;;;;;;;14.57;91.42;101857.75;5023773;28;20218;-63
2023/09/05 04:34:52;;;;;;;;;;;;;;;14.55;91.30;101862.06;5023890;28;19956;-63
2023/09/05 04:37:18;;;;;;;;;;;;;;;14.52;91.67;101862.00;5023445;28;19910;-63
2023/09/05 04:39:44;;;;;;;;;;;;;;;14.50;91.29;101863.72;5022805;28;20204;-63
2023/09/05 04:42:09;;;;;;;;;;;;;;;14.44;90.98;101860.09;5023823;28;19916;-63
2023/09/05 04:44:34;;;;;;;;;;;;;;;14.42;91.34;101867.03;5022888;28;19980;-63
2023/09/05 04:47:19;;;;;;;;;;;;;;;14.39;91.22;101856.44;5019318;28;19914;-63
2023/09/05 04:49:44;;;;;;;;;;;;;;;14.36;91.49;101856.38;5023452;28;20045;-63
2023/09/05 04:52:12;;;;;;;;;;;;;;;14.35;91.84;101854.63;5023352;28;20171;-63
2023/09/05 04:54:37;;;;;;;;;;;;;;;14.33;91.67;101856.31;5022816;28;20155;-63
2023/09/05 04:57:02;;;;;;;;;;;;;;;14.30;92.19;101850.13;5022813;28;19956;-63
2023/09/05 04:59:28;;;;;;;;;;;;;;;14.30;91.87;101861.50;5016412;28;19920;-63
2023/09/05 05:01:53;;;;;;;;;;;;;;;14.27;91.65;101864.91;5023653;28;19913;-63
2023/09/05 05:04:18;;;;;;;;;;;;;;;14.27;91.84;101864.03;5023299;28;19991;-63
2023/09/05 05:06:43;;;;;;;;;;;;;;;14.22;91.59;101849.91;5023321;28;19948;-63
2023/09/05 05:09:08;;;;;;;;;;;;;;;14.19;91.64;101860.31;5023239;28;19992;-63
2023/09/05 05:11:34;;;;;;;;;;;;;;;14.15;92.23;101862.00;5023340;28;19910;-63
2023/09/05 05:13:59;;;;;;;;;;;;;;;14.14;91.85;101859.34;5022240;28;20063;-63
2023/09/05 05:16:24;;;;;;;;;;;;;;;14.14;92.23;101864.59;5023127;28;20177;-63
2023/09/05 05:18:49;;;;;;;;;;;;;;;14.12;92.03;101867.16;5023349;28;19948;-63
2023/09/05 05:21:15;;;;;;;;;;;;;;;14.10;92.15;101863.59;5007044;28;20004;-63
2023/09/05 05:23:40;;;;;;;;;;;;;;;14.08;92.21;101868.81;5026943;28;20071;-63
2023/09/05 05:26:05;;;;;;;;;;;;;;;14.06;92.87;101867.91;5026378;28;19956;-63
2023/09/05 05:28:30;;;;;;;;;;;;;;;14.05;92.73;101870.47;5027496;28;20059;-63
2023/09/05 05:30:55;;;;;;;;;;;;;;;14.05;92.60;101867.84;5026590;28;19996;-63
2023/09/05 05:33:21;;;;;;;;;;;;;;;14.04;92.51;101879.19;5024913;28;19941;-64
2023/09/05 05:35:51;;;;;;;;;;;;;;;14.04;92.98;101884.41;5026438;28;19914;-64
2023/09/05 05:38:16;;;;;;;;;;;;;;;14.05;92.79;101881.84;5027192;28;19920;-63
2023/09/05 05:40:41;;;;;;;;;;;;;;;14.08;92.92;101884.53;5027140;28;19913;-63
2023/09/05 05:43:07;;;;;;;;;;;;;;;14.11;92.76;101891.59;5026925;28;19913;-63
2023/09/05 05:45:32;;;;;;;;;;;;;;;14.13;92.95;101883.78;5027073;28;19942;-63
2023/09/05 05:47:58;;;;;;;;;;;;;;;14.13;92.90;101876.78;5019207;28;19921;-63
2023/09/05 05:50:23;;;;;;;;;;;;;;;14.14;93.04;101873.31;5026652;28;19913;-63
2023/09/05 05:52:48;;;;;;;;;;;;;;;14.15;93.43;101871.56;5026662;28;19917;-63
2023/09/05 05:55:13;;;;;;;;;;;;;;;14.17;93.34;101881.25;5026647;28;19918;-63
2023/09/05 05:57:38;;;;;;;;;;;;;;;14.17;93.72;101880.38;5026544;28;19916;-63
2023/09/05 06:00:04;;;;;;;;;;;;;;;14.19;93.46;101881.28;5026750;28;20009;-63
2023/09/05 06:02:30;;;;;;;;;;;;;;;14.19;93.69;101890.06;5020879;28;20009;-63
2023/09/05 06:04:55;;;;;;;;;;;;;;;14.22;93.48;101886.59;5017718;28;19914;-63
2023/09/05 06:07:20;;;;;;;;;;;;;;;14.25;93.04;101884.97;5026455;28;20163;-63
2023/09/05 06:09:45;;;;;;;;;;;;;;;14.24;93.09;101888.44;5026543;28;19910;-63
2023/09/05 06:12:10;;;;;;;;;;;;;;;14.26;93.51;101885.84;5025875;28;19917;-63
2023/09/05 06:14:36;;;;;;;;;;;;;;;14.29;93.48;101885.03;5026398;28;19913;-63
2023/09/05 06:17:01;;;;;;;;;;;;;;;14.30;93.97;101885.06;5022281;28;19984;-63
2023/09/05 06:19:27;;;;;;;;;;;;;;;14.32;94.19;101880.75;5002368;28;19930;-63
2023/09/05 06:21:52;;;;;;;;;;;;;;;14.36;93.54;101882.59;5025763;28;19957;-64
2023/09/05 06:24:18;;;;;;;;;;;;;;;14.40;94.19;101887.06;5026014;28;20214;-64
2023/09/05 06:26:45;;;;;;;;;;;;;;;14.44;94.26;101886.31;5026176;28;19909;-63
2023/09/05 06:29:10;;;;;;;;;;;;;;;14.50;94.53;101884.69;5025338;28;19976;-63
2023/09/05 06:31:35;;;;;;;;;;;;;;;14.52;93.58;101885.59;5025603;28;19909;-63
2023/09/05 06:34:01;;;;;;;;;;;;;;;14.53;94.28;101884.78;5020234;28;19929;-63
2023/09/05 06:36:26;;;;;;;;;;;;;;;14.58;94.46;101884.03;5022832;28;19932;-63
2023/09/05 06:38:51;;;;;;;;;;;;;;;14.64;94.28;101882.41;5024514;28;19909;-63
2023/09/05 06:41:16;;;;;;;;;;;;;;;14.69;93.59;101883.44;5025906;28;19924;-63
2023/09/05 06:43:42;;;;;;;;;;;;;;;14.74;93.77;101882.69;5025782;28;19920;-63
2023/09/05 06:46:08;;;;;;;;;;;;;;;14.78;94.18;101879.25;5025283;28;19910;-63
2023/09/05 06:48:35;;;;;;;;;;;;;;;14.84;93.89;101880.25;5023557;28;20133;-63
2023/09/05 06:51:00;;;;;;;;;;;;;;;14.88;93.41;101882.97;5025831;28;19973;-63
2023/09/05 06:53:29;;;;;;;;;;;;;;;14.94;94.39;101883.13;5025538;28;19910;-63
2023/09/05 06:55:54;;;;;;;;;;;;;;;15.03;95.30;101890.31;5025576;28;19917;-64
2023/09/05 06:58:22;;;;;;;;;;;;;;;15.08;94.90;101878.19;5025269;28;19929;-63
2023/09/05 07:00:51;;;;;;;;;;;;;;;15.16;94.87;101877.47;5025582;28;19910;-63
2023/09/05 07:03:16;;;;;;;;;;;;;;;15.24;94.84;101868.00;5020186;28;19921;-63
2023/09/05 07:05:42;;;;;;;;;;;;;;;15.33;95.15;101868.19;5025396;28;19997;-63
2023/09/05 07:08:07;;;;;;;;;;;;;;;15.40;94.12;101867.47;5025157;28;19910;-63
2023/09/05 07:10:32;;;;;;;;;;;;;;;15.46;94.94;101867.56;5025438;28;19913;-63
2023/09/05 07:12:57;;;;;;;;;;;;;;;15.55;94.89;101873.88;5023705;28;19977;-63
2023/09/05 07:15:22;;;;;;;;;;;;;;;15.60;93.86;101875.75;5024770;28;20159;-63
2023/09/05 07:17:49;;;;;;;;;;;;;;;15.68;94.15;101868.00;5025264;28;19909;-63
2023/09/05 07:20:14;;;;;;;;;;;;;;;15.73;93.09;101863.72;5019504;28;20144;-63
2023/09/05 07:22:39;;;;;;;;;;;;;;;15.76;93.37;101862.91;5021796;28;19937;-63
2023/09/05 07:25:05;;;;;;;;;;;;;;;15.87;94.34;101857.88;5022336;28;19925;-63
2023/09/05 07:27:30;;;;;;;;;;;;;;;15.97;93.72;101852.81;5022876;28;19917;-63
2023/09/05 07:29:55;;;;;;;;;;;;;;;16.02;93.71;101852.88;5020964;28;19979;-63
2023/09/05 07:32:20;;;;;;;;;;;;;;;16.12;93.22;101859.16;5018924;28;19917;-63
2023/09/05 07:34:48;;;;;;;;;;;;;;;16.31;93.92;101858.63;5020754;28;21179;-64
2023/09/05 07:37:15;;;;;;;;;;;;;;;16.49;96.24;101851.88;5023539;28;19914;-63
2023/09/05 07:39:42;;;;;;;;;;;;;;;16.66;93.40;101844.25;5024579;28;19909;-63
2023/09/05 07:42:07;;;;;;;;;;;;;;;16.71;92.22;101845.19;5023641;28;20178;-64
2023/09/05 07:44:33;;;;;;;;;;;;;;;16.79;93.29;101848.81;5022162;28;19913;-64
2023/09/05 07:46:58;;;;;;;;;;;;;;;16.91;92.13;101847.25;5018181;28;19937;-64
2023/09/05 07:49:23;;;;;;;;;;;;;;;17.01;92.57;101843.88;5020083;28;19933;-64
2023/09/05 07:51:48;;;;;;;;;;;;;;;17.09;92.80;101844.88;5021522;28;20048;-64
2023/09/05 07:54:16;;;;;;;;;;;;;;;17.22;92.54;101848.53;4995174;28;20143;-64
2023/09/05 07:56:41;;;;;;;;;;;;;;;17.46;92.29;101855.81;5018622;28;19969;-64
2023/09/05 07:59:06;;;;;;;;;;;;;;;17.59;92.33;101853.34;5025665;28;20163;-64
2023/09/05 08:01:32;;;;;;;;;;;;;;;17.73;91.77;101854.38;5015681;28;19932;-64
2023/09/05 08:03:57;;;;;;;;;;;;;;;17.90;92.39;101851.91;5012054;28;19914;-64
2023/09/05 08:06:22;;;;;;;;;;;;;;;18.14;91.68;101859.16;5017846;28;19948;-64
2023/09/05 08:08:48;;;;;;;;;;;;;;;18.40;90.02;101853.22;5002945;28;20163;-64
2023/09/05 08:11:13;;;;;;;;;;;;;;;18.57;90.12;101858.63;5022461;28;19914;-64
2023/09/05 08:13:38;;;;;;;;;;;;;;;18.74;90.41;101858.72;5011572;28;20159;-64
2023/09/05 08:16:05;;;;;;;;;;;;;;;18.95;90.14;101863.28;5021341;28;19913;-64
2023/09/05 08:18:30;;;;;;;;;;;;;;;19.13;90.77;101858.97;5024178;28;20136;-64
2023/09/05 08:20:59;;;;;;;;;;;;;;;19.28;89.84;101865.19;5009954;28;19941;-64
2023/09/05 08:23:24;;;;;;;;;;;;;;;19.48;89.25;101867.03;5019906;28;20099;-64
2023/09/05 08:25:51;;;;;;;;;;;;;;;19.62;89.84;101860.03;5005037;28;19973;-64
2023/09/05 08:28:16;;;;;;;;;;;;;;;19.79;89.69;101861.84;5020924;28;19920;-64
2023/09/05 08:30:41;;;;;;;;;;;;;;;20.03;89.68;101852.16;5020456;28;20136;-65
2023/09/05 08:33:07;;;;;;;;;;;;;;;20.21;88.03;101854.81;5019822;28;21116;-64
2023/09/05 08:35:32;;;;;;;;;;;;;;;20.40;86.98;101845.09;5003648;28;19921;-64
2023/09/05 08:38:02;;;;;;;;;;;;;;;20.60;86.13;101847.69;5019516;28;19953;-64
2023/09/05 08:40:28;;;;;;;;;;;;;;;20.84;84.10;101840.59;5023245;28;19988;-65
2023/09/05 08:42:53;;;;;;;;;;;;;;;20.99;80.85;101840.56;5020268;28;19929;-65
2023/09/05 08:45:22;;;;;;;;;;;;;;;21.17;81.55;101838.72;5021512;28;20080;-65
2023/09/05 08:47:48;;;;;;;;;;;;;;;21.36;81.99;101847.44;5020838;28;19913;-65
2023/09/05 08:50:13;;;;;;;;;;;;;;;21.60;81.11;101846.47;5020690;28;19992;-64
2023/09/05 08:52:41;;;;;;;;;;;;;;;21.81;78.22;101842.81;5021258;28;20154;-65
2023/09/05 08:55:07;;;;;;;;;;;;;;;22.00;77.19;101842.66;5020530;28;19913;-65
2023/09/05 08:57:33;;;;;;;;;;;;;;;22.15;75.63;101844.31;5014967;28;19921;-65
2023/09/05 09:00:01;;;;;;;;;;;;;;;22.29;76.13;101839.75;5020952;28;19917;-65
2023/09/05 09:02:27;;;;;;;;;;;;;;;22.48;74.38;101850.22;5022914;28;19975;-65
2023/09/05 09:04:53;;;;;;;;;;;;;;;22.61;75.93;101845.66;5023015;28;20139;-65
2023/09/05 09:07:18;;;;;;;;;;;;;;;22.75;77.03;101849.94;5022548;28;19948;-65
2023/09/05 09:09:45;;;;;;;;;;;;;;;22.87;74.24;101848.91;5003622;28;19913;-65
2023/09/05 09:12:11;;;;;;;;;;;;;;;23.01;72.62;101851.41;5023336;28;20020;-65
2023/09/05 09:14:36;;;;;;;;;;;;;;;23.14;71.00;101853.94;5023399;28;19909;-65
2023/09/05 09:17:02;;;;;;;;;;;;;;;23.28;71.41;101854.66;5023243;28;19909;-65
2023/09/05 09:19:31;;;;;;;;;;;;;;;23.41;67.73;101855.38;5023373;28;19917;-65
2023/09/05 09:22:00;;;;;;;;;;;;;;;23.59;72.44;101859.53;5023450;28;19948;-65
2023/09/05 09:24:30;;;;;;;;;;;;;;;23.77;73.67;101848.63;5019984;28;19955;-65
2023/09/05 09:26:56;;;;;;;;;;;;;;;23.90;72.79;101852.00;5023181;28;19932;-65
2023/09/05 09:29:21;;;;;;;;;;;;;;;24.01;70.93;101851.81;5023144;28;20143;-65
2023/09/05 09:31:47;;;;;;;;;;;;;;;24.16;72.11;101858.69;5023235;28;19932;-65
2023/09/05 09:34:13;;;;;;;;;;;;;;;24.33;67.41;101866.38;5021386;28;19917;-65
2023/09/05 09:36:38;;;;;;;;;;;;;;;24.49;69.33;101866.97;5022747;28;19993;-65
2023/09/05 09:39:07;;;;;;;;;;;;;;;24.64;68.17;101864.06;5023541;28;20131;-65
2023/09/05 09:41:33;;;;;;;;;;;;;;;24.79;69.73;101867.34;5022304;28;20195;-65
2023/09/05 09:43:58;;;;;;;;;;;;;;;24.97;67.10;101863.44;5021389;28;19913;-65
2023/09/05 09:46:24;;;;;;;;;;;;;;;25.10;69.33;101866.72;5023003;28;19965;-65
2023/09/05 09:48:49;;;;;;;;;;;;;;;25.11;65.58;101869.34;5018801;28;19914;-65
2023/09/05 09:51:15;;;;;;;;;;;;;;;25.23;68.27;101875.34;5022606;28;19913;-65
2023/09/05 09:53:42;;;;;;;;;;;;;;;25.29;65.68;101868.09;5021972;28;19921;-65
2023/09/05 09:56:10;;;;;;;;;;;;;;;25.32;66.72;101864.53;5023014;28;19988;-65
2023/09/05 09:58:38;;;;;;;;;;;;;;;25.49;66.80;101858.78;5005433;28;20070;-65
2023/09/05 10:01:03;;;;;;;;;;;;;;;25.71;66.21;101863.63;5005194;28;20079;-65
2023/09/05 10:03:29;;;;;;;;;;;;;;;25.82;61.15;101854.47;5021113;28;19914;-65
2023/09/05 10:05:55;;;;;;;;;;;;;;;25.92;62.87;101857.78;5022909;28;19913;-65
2023/09/05 10:08:21;;;;;;;;;;;;;;;26.10;66.26;101861.84;5025595;28;19998;-65
2023/09/05 10:10:46;;;;;;;;;;;;;;;26.22;64.29;101860.63;5027025;28;20110;-65
2023/09/05 10:13:11;;;;;;;;;;;;;;;26.20;59.14;101852.66;5016460;28;19917;-65
2023/09/05 10:15:38;;;;;;;;;;;;;;;26.26;61.89;101842.72;5025847;28;19909;-65
2023/09/05 10:18:05;;;;;;;;;;;;;;;26.28;63.93;101833.75;5025821;28;19985;-65
2023/09/05 10:20:33;;;;;;;;;;;;;;;26.43;62.09;101829.78;5024604;28;19914;-66
2023/09/05 10:22:58;;;;;;;;;;;;;;;26.61;59.44;101833.75;5025913;28;19975;-65
2023/09/05 10:25:25;;;;;;;;;;;;;;;26.66;58.35;101841.66;5024514;28;20170;-66
2023/09/05 10:27:51;;;;;;;;;;;;;;;26.76;62.21;101840.50;5026133;28;20156;-65
2023/09/05 10:30:19;;;;;;;;;;;;;;;26.93;59.52;101852.53;5025761;28;20190;-65
2023/09/05 10:32:46;;;;;;;;;;;;;;;27.03;60.95;101849.53;5014510;28;19925;-65
2023/09/05 10:35:16;;;;;;;;;;;;;;;27.05;60.98;101844.13;5024964;28;19937;-65
2023/09/05 10:38:03;;;;;;;;;;;;;;;27.06;61.80;101848.56;5008539;28;20083;-66
2023/09/05 10:40:34;;;;;;;;;;;;;;;27.10;58.94;101833.28;5024822;28;19932;-65
2023/09/05 10:43:01;;;;;;;;;;;;;;;27.12;58.89;101835.00;5018492;28;19913;-65
2023/09/05 10:45:27;;;;;;;;;;;;;;;27.19;59.12;101841.03;5013089;28;20094;-65
2023/09/05 10:47:54;;;;;;;;;;;;;;;27.36;59.94;101835.19;5013254;28;19996;-65
2023/09/05 10:50:20;;;;;;;;;;;;;;;27.54;59.01;101837.28;5025023;28;19924;-65
2023/09/05 10:53:10;;;;;;;;;;;;;;;27.69;58.61;101835.03;5024949;28;19944;-65
2023/09/05 10:55:40;;;;;;;;;;;;;;;27.73;58.23;101834.03;5025661;28;19968;-65
2023/09/05 10:58:25;;;;;;;;;;;;;;;27.76;58.68;101825.88;5017022;28;19913;-65
2023/09/05 11:00:50;;;;;;;;;;;;;;;27.90;59.34;101820.09;5021543;28;20194;-65
2023/09/05 11:03:17;;;;;;;;;;;;;;;28.05;58.83;101818.72;5022682;28;19920;-65
2023/09/05 11:05:45;;;;;;;;;;;;;;;28.08;57.88;101818.59;5021279;28;20237;-65
2023/09/05 11:08:20;;;;;;;;;;;;;;;28.08;53.39;101813.25;5021360;28;20349;-65
2023/09/05 11:10:46;;;;;;;;;;;;;;;27.99;55.04;101813.56;5021346;28;19909;-65
2023/09/05 11:13:14;;;;;;;;;;;;;;;28.01;52.56;101811.69;5022802;28;19913;-65
2023/09/05 11:15:43;;;;;;;;;;;;;;;27.92;51.96;101816.44;5024278;28;19909;-65
2023/09/05 11:18:10;;;;;;;;;;;;;;;27.88;53.64;101820.13;5024249;28;19913;-65
2023/09/05 11:20:39;;;;;;;;;;;;;;;27.96;55.45;101819.88;5024718;28;19914;-65
2023/09/05 11:23:11;;;;;;;;;;;;;;;28.15;55.88;101819.28;5023671;28;19913;-65
2023/09/05 11:25:41;;;;;;;;;;;;;;;28.28;56.31;101816.09;5023836;28;19955;-65
2023/09/05 11:28:06;;;;;;;;;;;;;;;28.53;56.76;101820.59;5017281;28;19914;-65
2023/09/05 11:30:35;;;;;;;;;;;;;;;28.68;52.88;101811.13;5021407;28;19960;-65
2023/09/05 11:33:00;;;;;;;;;;;;;;;28.72;53.72;101818.16;5020516;28;20151;-65
2023/09/05 11:35:30;;;;;;;;;;;;;;;28.85;54.10;101809.63;5023704;28;19940;-65
2023/09/05 11:37:59;;;;;;;;;;;;;;;29.07;55.51;101810.56;5022675;28;19925;-65
2023/09/05 11:40:25;;;;;;;;;;;;;;;29.09;51.08;101802.44;5005526;28;20247;-66
2023/09/05 11:43:00;;;;;;;;;;;;;;;29.07;52.55;101804.28;5023813;28;19967;-65
2023/09/05 11:45:26;;;;;;;;;;;;;;;29.12;53.71;101794.25;5024500;28;19920;-65
2023/09/05 11:47:51;;;;;;;;;;;;;;;29.17;54.50;101792.28;5023371;28;19969;-65
2023/09/05 11:50:17;;;;;;;;;;;;;;;29.25;55.35;101797.38;5014797;28;19914;-65
2023/09/05 11:52:43;;;;;;;;;;;;;;;29.36;53.33;101792.44;5019632;28;19952;-65
2023/09/05 11:55:10;;;;;;;;;;;;;;;29.41;53.99;101792.25;5023515;28;19948;-65
2023/09/05 11:57:36;;;;;;;;;;;;;;;29.45;53.54;101786.69;5023390;28;20154;-65
2023/09/05 12:00:02;;;;;;;;;;;;;;;29.59;54.71;101786.13;5014409;28;20127;-65
2023/09/05 12:02:27;;;;;;;;;;;;;;;29.73;54.18;101785.53;5021840;28;19949;-65
2023/09/05 12:04:55;;;;;;;;;;;;;;;29.87;49.84;101774.25;5024304;28;19980;-65
2023/09/05 12:07:23;;;;;;;;;;;;;;;29.85;51.98;101776.16;5021163;28;19949;-65
2023/09/05 12:09:48;;;;;;;;;;;;;;;29.78;51.78;101774.63;5023145;28;19920;-66
2023/09/05 12:12:14;;;;;;;;;;;;;;;29.74;53.07;101773.00;5024374;28;19961;-65
2023/09/05 12:14:59;;;;;;;;;;;;;;;29.79;50.88;101760.22;5021272;28;19921;-67
2023/09/05 12:17:25;;;;;;;;;;;;;;;29.83;52.68;101761.88;5018427;28;19930;-66
2023/09/05 12:19:54;;;;;;;;;;;;;;;29.80;49.93;101759.31;5023178;28;19913;-66
2023/09/05 12:22:24;;;;;;;;;;;;;;;29.79;51.51;101761.13;5020953;28;19914;-66
2023/09/05 12:25:07;;;;;;;;;;;;;;;29.89;50.27;101752.69;5010546;28;19918;-66
2023/09/05 12:27:32;;;;;;;;;;;;;;;30.05;53.14;101760.94;5016634;28;19920;-66
2023/09/05 12:29:58;;;;;;;;;;;;;;;30.27;53.25;101756.38;5020666;28;20032;-66
2023/09/05 12:32:26;;;;;;;;;;;;;;;30.62;50.45;101758.41;5022672;28;20004;-66